createdAt,value
2019-05-21T00:00:27.045Z,5.50
2019-05-21T00:02:57.387Z,4.43
2019-05-21T00:05:27.779Z,5.80
2019-05-21T00:07:58.554Z,4.20
2019-05-21T00:10:28.927Z,8.13
2019-05-21T00:12:59.296Z,6.90
2019-05-21T00:15:29.680Z,6.20
2019-05-21T00:18:00.063Z,3.37
2019-05-21T00:20:30.461Z,3.20
2019-05-21T00:23:00.831Z,3.83
2019-05-21T00:25:31.238Z,3.90
2019-05-21T00:28:30.442Z,4.27
2019-05-21T00:31:36.986Z,5.00
2019-05-21T00:34:44.377Z,4.67
2019-05-21T00:37:51.110Z,4.47
2019-05-21T00:40:57.295Z,4.63
2019-05-21T00:43:52.844Z,4.30
2019-05-21T00:46:23.223Z,5.10
2019-05-21T00:48:53.609Z,6.93
2019-05-21T00:51:24.099Z,6.20
2019-05-21T00:53:54.474Z,5.47
2019-05-21T00:56:24.860Z,4.93
2019-05-21T00:58:55.230Z,6.00
2019-05-21T01:01:25.641Z,5.13
2019-05-21T01:03:56.009Z,5.23
2019-05-21T01:06:26.443Z,8.10
2019-05-21T01:08:56.814Z,5.80
2019-05-21T01:11:27.189Z,6.57
2019-05-21T01:13:57.573Z,9.23
2019-05-21T01:16:28.047Z,8.87
2019-05-21T01:18:58.419Z,8.50
2019-05-21T01:21:28.841Z,10.70
2019-05-21T01:23:59.214Z,10.17
2019-05-21T01:26:29.679Z,10.63
2019-05-21T01:29:00.344Z,11.47
2019-05-21T01:31:30.732Z,13.00
2019-05-21T01:34:01.123Z,14.87
2019-05-21T01:36:31.617Z,12.70
2019-05-21T01:39:02.057Z,16.33
2019-05-21T01:41:32.498Z,15.90
2019-05-21T01:44:03.002Z,14.97
2019-05-21T01:46:33.598Z,14.03
2019-05-21T01:49:04.035Z,16.17
2019-05-21T01:51:34.484Z,14.30
2019-05-21T01:54:04.894Z,13.67
2019-05-21T01:56:35.286Z,12.87
2019-05-21T01:59:06.126Z,14.30
2019-05-21T02:01:36.549Z,13.63
2019-05-21T02:04:06.951Z,14.60
2019-05-21T02:06:37.315Z,12.87
2019-05-21T02:09:08.975Z,12.83
2019-05-21T02:11:39.395Z,10.50
2019-05-21T02:14:09.794Z,12.23
2019-05-21T02:16:40.209Z,10.70
2019-05-21T02:19:10.614Z,10.20
2019-05-21T02:21:40.980Z,9.60
2019-05-21T02:24:11.395Z,8.20
2019-05-21T02:26:41.776Z,7.83
2019-05-21T02:29:12.161Z,6.50
2019-05-21T02:31:42.522Z,8.80
2019-05-21T02:34:12.986Z,9.20
2019-05-21T02:36:43.349Z,8.20
2019-05-21T02:39:13.806Z,9.87
2019-05-21T02:41:44.169Z,8.77
2019-05-21T02:44:14.567Z,8.80
2019-05-21T02:46:44.935Z,5.60
2019-05-21T02:49:15.341Z,7.97
2019-05-21T02:51:45.743Z,5.10
2019-05-21T02:54:16.281Z,4.73
2019-05-21T02:56:46.675Z,4.90
2019-05-21T02:59:17.071Z,6.50
2019-05-21T03:02:00.086Z,3.87
2019-05-21T03:04:30.509Z,4.03
2019-05-21T03:07:19.599Z,3.40
2019-05-21T03:09:51.068Z,3.97
2019-05-21T03:12:21.570Z,4.00
2019-05-21T03:14:51.980Z,2.60
2019-05-21T03:17:22.359Z,3.37
2019-05-21T03:19:52.783Z,3.90
2019-05-21T03:22:23.136Z,2.90
2019-05-21T03:24:53.507Z,1.97
2019-05-21T03:27:23.868Z,2.10
2019-05-21T03:29:54.388Z,2.17
2019-05-21T03:32:24.742Z,2.03
2019-05-21T03:34:55.162Z,2.07
2019-05-21T03:37:25.530Z,2.20
2019-05-21T03:39:55.928Z,3.73
2019-05-21T03:42:26.379Z,2.80
2019-05-21T03:45:00.514Z,4.20
2019-05-21T03:47:28.824Z,6.87
2019-05-21T03:49:59.226Z,4.00
2019-05-21T03:52:29.625Z,4.57
2019-05-21T03:55:02.876Z,3.67
2019-05-21T03:57:32.144Z,3.73
2019-05-21T04:00:02.540Z,3.57
2019-05-21T04:02:32.933Z,3.80
2019-05-21T04:05:03.347Z,4.13
2019-05-21T04:07:33.796Z,6.40
2019-05-21T04:10:04.538Z,7.17
2019-05-21T04:12:34.894Z,5.43
2019-05-21T04:15:09.167Z,3.43
2019-05-21T04:17:57.573Z,5.43
2019-05-21T04:20:27.980Z,4.40
2019-05-21T04:22:58.361Z,4.60
2019-05-21T04:25:28.950Z,5.03
2019-05-21T04:27:59.309Z,4.67
2019-05-21T04:30:29.722Z,4.67
2019-05-21T04:33:00.182Z,5.20
2019-05-21T04:35:30.734Z,4.83
2019-05-21T04:38:01.123Z,3.83
2019-05-21T04:40:31.639Z,7.47
2019-05-21T04:43:02.754Z,4.53
2019-05-21T04:45:33.439Z,5.90
2019-05-21T04:48:03.799Z,6.53
2019-05-21T04:50:34.191Z,4.23
2019-05-21T04:53:04.594Z,6.60
2019-05-21T04:55:34.973Z,5.23
2019-05-21T04:58:05.332Z,4.67
2019-05-21T05:00:35.730Z,5.57
2019-05-21T05:03:06.114Z,3.90
2019-05-21T05:05:36.501Z,3.30
2019-05-21T05:08:06.967Z,5.80
2019-05-21T05:10:37.377Z,4.57
2019-05-21T05:13:07.731Z,2.67
2019-05-21T05:15:38.195Z,2.87
2019-05-21T05:18:09.043Z,3.13
2019-05-21T05:20:39.499Z,3.93
2019-05-21T05:23:09.878Z,2.40
2019-05-21T05:25:40.277Z,1.87
2019-05-21T05:28:10.727Z,2.27
2019-05-21T05:30:41.134Z,3.47
2019-05-21T05:33:11.508Z,2.17
2019-05-21T05:35:41.895Z,1.67
2019-05-21T05:38:12.291Z,1.73
2019-05-21T05:40:42.706Z,2.67
2019-05-21T05:43:13.061Z,2.90
2019-05-21T05:45:43.568Z,1.40
2019-05-21T05:48:14.447Z,1.30
2019-05-21T05:50:46.746Z,1.30
2019-05-21T05:53:17.113Z,1.13
2019-05-21T05:55:47.492Z,1.20
2019-05-21T05:58:17.865Z,1.10
2019-05-21T06:00:48.272Z,1.33
2019-05-21T06:03:18.656Z,1.20
2019-05-21T06:05:49.080Z,0.97
2019-05-21T06:08:19.439Z,1.47
2019-05-21T06:10:49.831Z,1.03
2019-05-21T06:13:20.187Z,0.80
2019-05-21T06:15:50.597Z,1.13
2019-05-21T06:18:20.954Z,1.33
2019-05-21T06:20:51.354Z,1.73
2019-05-21T06:23:21.719Z,1.23
2019-05-21T06:25:52.115Z,1.27
2019-05-21T06:28:22.509Z,1.27
2019-05-21T06:30:52.901Z,2.80
2019-05-21T06:33:23.303Z,0.50
2019-05-21T06:35:53.718Z,0.70
2019-05-21T06:38:24.067Z,0.70
2019-05-21T06:40:54.474Z,0.83
2019-05-21T06:43:24.958Z,0.80
2019-05-21T06:45:55.400Z,0.80
2019-05-21T06:48:25.758Z,1.63
2019-05-21T06:50:56.128Z,2.35
2019-05-21T06:53:26.515Z,1.10
2019-05-21T06:55:56.886Z,0.77
2019-05-21T06:58:27.276Z,0.80
2019-05-21T07:00:57.647Z,1.60
2019-05-21T07:03:28.167Z,1.13
2019-05-21T07:05:59.561Z,0.80
2019-05-21T07:08:34.732Z,1.17
2019-05-21T07:11:02.396Z,0.60
2019-05-21T07:13:32.829Z,1.23
2019-05-21T07:16:03.288Z,0.60
2019-05-21T07:18:33.742Z,0.60
2019-05-21T07:21:04.222Z,0.60
2019-05-21T07:23:34.624Z,3.90
2019-05-21T07:26:05.194Z,0.70
2019-05-21T07:28:35.576Z,0.90
2019-05-21T07:31:05.934Z,1.80
2019-05-21T07:33:36.368Z,1.80
2019-05-21T07:36:06.745Z,0.77
2019-05-21T07:38:51.902Z,1.53
2019-05-21T07:41:09.296Z,0.97
2019-05-21T07:43:39.709Z,4.30
2019-05-21T07:46:10.163Z,0.63
2019-05-21T07:48:40.581Z,0.60
2019-05-21T07:51:10.991Z,0.70
2019-05-21T07:53:41.390Z,0.70
2019-05-21T07:56:11.748Z,0.83
2019-05-21T07:58:42.155Z,1.90
2019-05-21T08:01:12.548Z,0.70
2019-05-21T08:03:43.006Z,0.95
2019-05-21T08:06:15.060Z,1.13
2019-05-21T08:08:45.463Z,0.60
2019-05-21T08:11:15.837Z,2.30
2019-05-21T08:13:46.261Z,1.02
2019-05-21T08:16:16.652Z,0.53
2019-05-21T08:18:47.058Z,0.70
2019-05-21T08:21:17.428Z,0.97
2019-05-21T08:23:47.811Z,2.90
2019-05-21T08:26:18.190Z,1.25
2019-05-21T08:28:48.605Z,1.53
2019-05-21T08:31:19.073Z,1.43
2019-05-21T08:33:49.446Z,1.40
2019-05-21T08:36:19.811Z,1.50
2019-05-21T08:38:50.210Z,1.37
2019-05-21T08:41:20.605Z,2.37
2019-05-21T08:43:51.014Z,0.80
2019-05-21T08:46:21.393Z,0.70
2019-05-21T08:48:51.762Z,0.73
2019-05-21T08:51:33.585Z,1.00
2019-05-21T08:54:03.985Z,0.93
2019-05-21T08:56:34.374Z,1.30
2019-05-21T08:59:04.771Z,0.80
2019-05-21T09:01:35.145Z,0.97
2019-05-21T09:04:08.869Z,1.17
2019-05-21T09:06:39.222Z,1.40
2019-05-21T09:09:09.605Z,1.30
2019-05-21T09:11:39.994Z,1.00
2019-05-21T09:14:10.390Z,1.37
2019-05-21T09:16:40.757Z,1.20
2019-05-21T09:19:11.164Z,1.17
2019-05-21T09:21:41.514Z,2.00
2019-05-21T09:24:11.929Z,1.93
2019-05-21T09:26:42.297Z,0.90
2019-05-21T09:29:12.698Z,1.20
2019-05-21T09:31:43.127Z,1.77
2019-05-21T09:34:13.525Z,0.80
2019-05-21T09:36:43.923Z,0.90
2019-05-21T09:39:14.335Z,1.23
2019-05-21T09:41:44.767Z,1.00
2019-05-21T09:44:15.157Z,0.80
2019-05-21T09:46:45.539Z,0.80
2019-05-21T09:49:15.929Z,1.00
2019-05-21T09:51:46.316Z,0.70
2019-05-21T09:54:16.750Z,0.83
2019-05-21T09:56:47.235Z,1.00
2019-05-21T09:59:26.985Z,1.40
2019-05-21T10:02:00.243Z,1.60
2019-05-21T10:04:30.590Z,2.30
2019-05-21T10:07:01.164Z,0.97
2019-05-21T10:09:31.579Z,0.70
2019-05-21T10:12:02.011Z,2.27
2019-05-21T10:14:34.198Z,1.27
2019-05-21T10:17:04.738Z,1.60
2019-05-21T10:19:35.103Z,1.23
2019-05-21T10:22:05.643Z,3.23
2019-05-21T10:24:36.054Z,2.47
2019-05-21T10:27:06.474Z,2.27
2019-05-21T10:29:36.831Z,1.10
2019-05-21T10:32:07.280Z,0.80
2019-05-21T10:34:37.727Z,1.93
2019-05-21T10:37:08.101Z,1.10
2019-05-21T10:39:38.481Z,1.80
2019-05-21T10:42:08.937Z,0.90
2019-05-21T10:44:39.320Z,1.23
2019-05-21T10:47:09.736Z,1.47
2019-05-21T10:49:40.085Z,1.17
2019-05-21T10:52:10.472Z,2.00
2019-05-21T10:54:40.854Z,1.10
2019-05-21T10:57:11.265Z,1.40
2019-05-21T10:59:41.692Z,5.70
2019-05-21T11:02:31.022Z,2.43
2019-05-21T11:05:07.697Z,1.53
2019-05-21T11:07:38.142Z,1.10
2019-05-21T11:10:09.745Z,2.43
2019-05-21T11:12:40.184Z,1.20
2019-05-21T11:15:10.559Z,1.83
2019-05-21T11:17:53.670Z,1.70
2019-05-21T11:20:13.555Z,2.87
2019-05-21T11:22:43.958Z,1.70
2019-05-21T11:25:14.527Z,1.67
2019-05-21T11:27:44.926Z,2.10
2019-05-21T11:30:15.701Z,1.97
2019-05-21T11:32:48.072Z,1.67
2019-05-21T11:35:18.568Z,2.17
2019-05-21T11:37:48.971Z,3.10
2019-05-21T11:40:19.814Z,1.43
2019-05-21T11:42:52.938Z,1.40
2019-05-21T11:45:31.547Z,1.93
2019-05-21T11:47:54.895Z,1.43
2019-05-21T11:50:25.585Z,2.57
2019-05-21T11:52:56.020Z,2.23
2019-05-21T11:55:26.425Z,1.33
2019-05-21T11:57:56.868Z,2.07
2019-05-21T12:00:28.918Z,2.17
2019-05-21T12:02:59.305Z,1.40
2019-05-21T12:05:29.755Z,2.07
2019-05-21T12:08:00.224Z,2.10
2019-05-21T12:10:30.803Z,2.00
2019-05-21T12:13:01.193Z,2.23
2019-05-21T12:15:31.561Z,1.80
2019-05-21T12:18:01.953Z,2.47
2019-05-21T12:20:36.661Z,1.20
2019-05-21T12:23:04.423Z,1.43
2019-05-21T12:25:35.157Z,1.30
2019-05-21T12:28:05.685Z,1.57
2019-05-21T12:30:37.524Z,1.20
2019-05-21T12:33:07.927Z,1.40
2019-05-21T12:35:38.293Z,1.73
2019-05-21T12:38:08.667Z,1.63
2019-05-21T12:40:39.107Z,3.00
2019-05-21T12:43:09.565Z,2.40
2019-05-21T12:45:40.076Z,2.37
2019-05-21T12:48:10.543Z,2.27
2019-05-21T12:50:40.918Z,3.33
2019-05-21T12:53:11.334Z,4.10
2019-05-21T12:55:41.723Z,2.47
2019-05-21T12:58:12.235Z,3.60
2019-05-21T13:00:42.877Z,2.97
2019-05-21T13:03:13.291Z,3.10
2019-05-21T13:05:43.650Z,1.93
2019-05-21T13:08:14.052Z,2.00
2019-05-21T13:10:44.741Z,2.10
2019-05-21T13:13:15.174Z,1.60
2019-05-21T13:15:49.382Z,2.17
2019-05-21T13:18:20.113Z,1.70
2019-05-21T13:20:50.461Z,1.90
2019-05-21T13:23:20.854Z,1.63
2019-05-21T13:25:51.238Z,1.90
2019-05-21T13:28:21.606Z,2.20
2019-05-21T13:30:51.972Z,2.10
2019-05-21T13:33:22.437Z,3.23
2019-05-21T13:35:52.795Z,2.17
2019-05-21T13:38:23.239Z,3.67
2019-05-21T13:40:53.721Z,4.53
2019-05-21T13:43:24.157Z,2.33
2019-05-21T13:45:54.556Z,2.60
2019-05-21T13:48:24.987Z,6.13
2019-05-21T13:50:55.376Z,1.77
2019-05-21T13:53:25.762Z,3.20
2019-05-21T13:55:56.138Z,3.50
2019-05-21T13:58:26.587Z,3.10
2019-05-21T14:00:57.090Z,2.73
2019-05-21T14:03:27.522Z,2.97
2019-05-21T14:05:57.944Z,2.60
2019-05-21T14:08:28.306Z,3.00
2019-05-21T14:10:58.754Z,3.50
2019-05-21T14:13:29.456Z,3.63
2019-05-21T14:15:59.801Z,3.50
2019-05-21T14:18:30.198Z,3.33
2019-05-21T14:21:00.637Z,3.13
2019-05-21T14:23:31.046Z,2.93
2019-05-21T14:26:01.499Z,3.10
2019-05-21T14:28:34.459Z,5.87
2019-05-21T14:31:04.040Z,3.90
2019-05-21T14:33:34.584Z,3.97
2019-05-21T14:36:05.394Z,4.17
2019-05-21T14:38:35.835Z,6.50
2019-05-21T14:41:06.222Z,4.43
2019-05-21T14:43:36.661Z,6.83
2019-05-21T14:46:07.035Z,4.40
2019-05-21T14:48:37.428Z,4.17
2019-05-21T14:51:07.783Z,4.37
2019-05-21T14:53:38.190Z,5.03
2019-05-21T14:56:09.072Z,3.70
2019-05-21T14:58:39.565Z,5.43
2019-05-21T15:01:09.927Z,4.40
2019-05-21T15:03:40.419Z,5.70
2019-05-21T15:06:10.811Z,4.20
2019-05-21T15:08:41.213Z,4.03
2019-05-21T15:11:11.755Z,4.00
2019-05-21T15:13:42.128Z,3.93
2019-05-21T15:16:12.529Z,3.97
2019-05-21T15:18:42.904Z,3.80
2019-05-21T15:21:21.677Z,2.50
2019-05-21T15:23:52.709Z,3.53
2019-05-21T15:26:23.169Z,3.47
2019-05-21T15:28:53.535Z,3.43
2019-05-21T15:31:24.026Z,4.30
2019-05-21T15:33:54.473Z,3.40
2019-05-21T15:36:24.915Z,4.43
2019-05-21T15:38:55.353Z,4.60
2019-05-21T15:41:25.957Z,3.90
2019-05-21T15:43:56.421Z,3.77
2019-05-21T15:46:26.903Z,4.77
2019-05-21T15:48:57.286Z,5.33
2019-05-21T15:51:27.757Z,5.73
2019-05-21T15:53:58.177Z,4.40
2019-05-21T15:56:28.655Z,4.87
2019-05-21T15:58:59.113Z,4.90
2019-05-21T16:01:29.482Z,4.33
2019-05-21T16:03:59.894Z,4.73
2019-05-21T16:06:30.456Z,4.00
2019-05-21T16:09:00.958Z,4.60
2019-05-21T16:11:31.609Z,3.60
2019-05-21T16:14:02.014Z,4.10
2019-05-21T16:16:32.525Z,4.50
2019-05-21T16:19:03.175Z,5.50
2019-05-21T16:21:33.603Z,5.47
2019-05-21T16:24:03.983Z,5.00
2019-05-21T16:26:34.422Z,4.40
2019-05-21T16:29:05.190Z,5.40
2019-05-21T16:31:35.644Z,4.43
2019-05-21T16:34:06.014Z,4.43
2019-05-21T16:36:36.491Z,5.23
2019-05-21T16:39:08.759Z,4.37
2019-05-21T16:41:44.678Z,4.80
2019-05-21T16:44:11.295Z,4.90
2019-05-21T16:46:42.690Z,4.77
2019-05-21T16:49:13.420Z,4.67
2019-05-21T16:51:44.189Z,4.90
2019-05-21T16:54:14.625Z,4.93
2019-05-21T16:56:44.994Z,4.00
2019-05-21T16:59:15.377Z,4.50
2019-05-21T17:01:45.787Z,14.43
2019-05-21T17:04:16.150Z,5.20
2019-05-21T17:06:46.737Z,4.73
2019-05-21T17:09:17.211Z,5.60
2019-05-21T17:11:59.574Z,4.30
2019-05-21T17:14:19.741Z,7.23
2019-05-21T17:16:50.129Z,5.80
2019-05-21T17:19:20.523Z,4.27
2019-05-21T17:21:50.962Z,4.87
2019-05-21T17:24:21.352Z,6.07
2019-05-21T17:26:51.826Z,4.87
2019-05-21T17:29:22.185Z,5.07
2019-05-21T17:31:52.639Z,6.40
2019-05-21T17:34:23.014Z,5.20
2019-05-21T17:36:53.926Z,4.70
2019-05-21T17:39:24.300Z,5.20
2019-05-21T17:41:54.899Z,6.23
2019-05-21T17:44:25.347Z,5.67
2019-05-21T17:46:55.802Z,6.73
2019-05-21T17:49:26.314Z,9.13
2019-05-21T17:51:56.774Z,7.57
2019-05-21T17:54:27.198Z,7.33
2019-05-21T17:56:57.606Z,5.97
2019-05-21T17:59:28.056Z,6.67
2019-05-21T18:01:58.500Z,5.77
2019-05-21T18:04:29.623Z,9.03
2019-05-21T18:07:00.455Z,10.10
2019-05-21T18:09:31.654Z,7.40
2019-05-21T18:12:02.439Z,8.20
2019-05-21T18:14:33.114Z,5.10
2019-05-21T18:17:03.547Z,5.00
2019-05-21T18:19:34.254Z,4.53
2019-05-21T18:22:06.307Z,4.53
2019-05-21T18:24:37.188Z,3.98
2019-05-21T18:27:07.666Z,3.53
2019-05-21T18:29:38.099Z,5.60
2019-05-21T18:32:08.556Z,3.63
2019-05-21T18:34:38.959Z,4.70
2019-05-21T18:37:09.439Z,6.43
2019-05-21T18:39:40.428Z,4.83
2019-05-21T18:42:21.605Z,3.50
2019-05-21T18:44:43.008Z,3.30
2019-05-21T18:47:13.394Z,3.53
2019-05-21T18:49:43.845Z,4.20
2019-05-21T18:52:14.283Z,4.43
2019-05-21T18:54:47.814Z,5.30
2019-05-21T18:57:16.889Z,2.93
2019-05-21T18:59:47.507Z,5.13
2019-05-21T19:02:17.990Z,5.47
2019-05-21T19:04:48.421Z,7.60
2019-05-21T19:07:19.112Z,5.33
2019-05-21T19:09:49.626Z,7.63
2019-05-21T19:12:20.095Z,4.73
2019-05-21T19:14:50.498Z,5.33
2019-05-21T19:17:34.830Z,5.20
2019-05-21T19:20:12.354Z,6.20
2019-05-21T19:24:25.393Z,6.30
2019-05-21T19:26:44.603Z,8.47
2019-05-21T19:47:56.789Z,7.10
2019-05-21T19:50:27.267Z,8.40
2019-05-21T19:52:57.670Z,7.90
2019-05-21T19:55:29.491Z,8.23
2019-05-21T19:57:59.909Z,9.40
2019-05-21T20:00:32.136Z,8.40
2019-05-21T20:03:02.762Z,11.17
2019-05-21T20:05:33.215Z,10.53
2019-05-21T20:08:03.822Z,10.90
2019-05-21T20:10:34.873Z,8.10
2019-05-21T20:13:05.427Z,9.50
2019-05-21T20:15:35.855Z,9.93
2019-05-21T20:18:07.705Z,14.07
2019-05-21T20:20:38.736Z,10.67
2019-05-21T20:23:12.237Z,12.60
2019-05-21T20:25:55.277Z,9.20
2019-05-21T20:28:15.730Z,12.67
2019-05-21T20:30:46.630Z,10.10
2019-05-21T20:33:17.006Z,9.63
2019-05-21T20:35:48.541Z,8.30
2019-05-21T20:38:19.407Z,8.63
2019-05-21T20:40:49.811Z,12.63
2019-05-21T20:43:20.268Z,10.30
2019-05-21T20:45:51.810Z,10.07
2019-05-21T20:48:26.150Z,10.70
2019-05-21T20:50:56.619Z,9.50
2019-05-21T20:53:27.262Z,10.93
2019-05-21T20:55:57.926Z,14.50
2019-05-21T20:58:28.455Z,12.93
2019-05-21T21:01:02.198Z,10.80
2019-05-21T21:03:33.759Z,11.63
2019-05-21T21:06:05.097Z,11.40
2019-05-21T21:08:36.528Z,11.57
2019-05-21T21:11:09.068Z,12.53
2019-05-21T21:13:40.543Z,14.10
2019-05-21T21:16:11.435Z,13.53
2019-05-21T21:18:42.271Z,13.43
2019-05-21T21:21:12.774Z,18.70
2019-05-21T21:23:43.487Z,14.70
2019-05-21T21:26:14.086Z,14.03
2019-05-21T21:28:44.530Z,14.07
2019-05-21T21:31:14.979Z,14.40
2019-05-21T21:33:45.670Z,18.40
2019-05-21T21:36:16.184Z,17.70
2019-05-21T21:38:46.702Z,17.17
2019-05-21T21:41:18.217Z,15.73
2019-05-21T21:43:48.826Z,17.60
2019-05-21T21:46:19.230Z,18.13
2019-05-21T21:48:50.404Z,17.37
2019-05-21T21:51:21.321Z,18.67
2019-05-21T21:53:51.760Z,17.83
2019-05-21T21:56:22.359Z,13.97
2019-05-21T21:58:52.727Z,14.93
2019-05-21T22:01:48.573Z,18.83
2019-05-21T22:04:23.975Z,15.47
2019-05-21T22:06:55.895Z,15.80
2019-05-21T22:09:31.052Z,16.20
2019-05-21T22:12:03.480Z,16.47
2019-05-21T22:14:49.182Z,16.73
2019-05-21T22:17:09.441Z,15.50
2019-05-21T22:19:40.974Z,14.60
2019-05-21T22:22:12.500Z,15.13
2019-05-21T22:24:43.750Z,14.93
2019-05-21T22:27:14.449Z,16.13
2019-05-21T22:29:44.821Z,16.60
2019-05-21T22:32:16.727Z,17.20
2019-05-21T22:34:47.299Z,14.93
2019-05-21T22:37:21.306Z,16.53
2019-05-21T22:39:52.270Z,14.18
2019-05-21T22:42:24.290Z,14.70
2019-05-21T22:45:07.359Z,16.30
2019-05-21T22:47:27.062Z,16.12
2019-05-21T22:49:57.418Z,18.87
2019-05-21T22:52:27.887Z,16.60
2019-05-21T22:54:58.377Z,17.10
2019-05-21T22:57:28.922Z,15.38
2019-05-21T22:59:59.290Z,15.57
2019-05-21T23:02:31.660Z,15.80
2019-05-21T23:05:02.025Z,15.30
2019-05-21T23:07:32.445Z,19.40
2019-05-21T23:10:04.397Z,16.50
2019-05-21T23:12:35.212Z,14.73
2019-05-21T23:15:06.153Z,17.37
2019-05-21T23:17:36.566Z,19.90
2019-05-21T23:20:07.782Z,17.13
2019-05-21T23:22:38.418Z,14.10
2019-05-21T23:25:09.191Z,16.67
2019-05-21T23:27:39.887Z,17.43
2019-05-21T23:30:12.495Z,16.70
2019-05-21T23:32:43.362Z,17.57
2019-05-21T23:35:14.435Z,14.27
2019-05-21T23:37:46.885Z,17.83
2019-05-21T23:40:18.077Z,16.30
2019-05-21T23:42:48.461Z,16.30
2019-05-21T23:45:19.530Z,15.80
2019-05-21T23:47:50.212Z,16.13
2019-05-21T23:50:20.994Z,17.40
2019-05-21T23:52:52.564Z,15.77
2019-05-21T23:55:23.004Z,14.73
2019-05-21T23:57:53.466Z,14.83
